sensor_id;sensor_type;location;lat;lon;timestamp;P1;durP1;ratioP1;P2;durP2;ratioP2
45887;SDS011;31595;51.418;7.572;2023-08-07T00:01:24;2.63;;;1.30;;
45887;SDS011;31595;51.418;7.572;2023-08-07T00:03:50;2.22;;;1.10;;
45887;SDS011;31595;51.418;7.572;2023-08-07T00:06:17;2.67;;;1.10;;
45887;SDS011;31595;51.418;7.572;2023-08-07T00:08:44;3.25;;;1.00;;
45887;SDS011;31595;51.418;7.572;2023-08-07T00:11:11;2.85;;;1.20;;
45887;SDS011;31595;51.418;7.572;2023-08-07T00:13:39;3.20;;;1.17;;
45887;SDS011;31595;51.418;7.572;2023-08-07T00:16:05;5.10;;;1.60;;
45887;SDS011;31595;51.418;7.572;2023-08-07T00:18:32;2.47;;;1.42;;
45887;SDS011;31595;51.418;7.572;2023-08-07T00:20:59;3.22;;;1.65;;
45887;SDS011;31595;51.418;7.572;2023-08-07T00:23:26;3.53;;;1.90;;
45887;SDS011;31595;51.418;7.572;2023-08-07T00:25:53;2.55;;;1.90;;
45887;SDS011;31595;51.418;7.572;2023-08-07T00:28:19;2.65;;;1.73;;
45887;SDS011;31595;51.418;7.572;2023-08-07T00:30:47;2.97;;;2.15;;
45887;SDS011;31595;51.418;7.572;2023-08-07T00:33:14;4.10;;;1.92;;
45887;SDS011;31595;51.418;7.572;2023-08-07T00:35:41;3.20;;;1.90;;
45887;SDS011;31595;51.418;7.572;2023-08-07T00:38:08;4.05;;;2.10;;
45887;SDS011;31595;51.418;7.572;2023-08-07T00:40:37;3.28;;;1.88;;
45887;SDS011;31595;51.418;7.572;2023-08-07T00:43:05;2.85;;;1.70;;
45887;SDS011;31595;51.418;7.572;2023-08-07T00:45:32;2.28;;;1.60;;
45887;SDS011;31595;51.418;7.572;2023-08-07T00:48:02;2.97;;;1.90;;
45887;SDS011;31595;51.418;7.572;2023-08-07T00:50:29;2.72;;;2.03;;
45887;SDS011;31595;51.418;7.572;2023-08-07T00:52:56;2.58;;;2.00;;
45887;SDS011;31595;51.418;7.572;2023-08-07T00:55:23;2.35;;;1.80;;
45887;SDS011;31595;51.418;7.572;2023-08-07T00:57:49;2.53;;;1.80;;
45887;SDS011;31595;51.418;7.572;2023-08-07T01:00:16;2.03;;;1.40;;
45887;SDS011;31595;51.418;7.572;2023-08-07T01:02:44;2.17;;;1.65;;
45887;SDS011;31595;51.418;7.572;2023-08-07T01:05:12;2.50;;;1.70;;
45887;SDS011;31595;51.418;7.572;2023-08-07T01:07:39;3.22;;;1.70;;
45887;SDS011;31595;51.418;7.572;2023-08-07T01:10:06;3.22;;;1.70;;
45887;SDS011;31595;51.418;7.572;2023-08-07T01:12:36;2.40;;;2.03;;
45887;SDS011;31595;51.418;7.572;2023-08-07T01:15:07;4.18;;;2.10;;
45887;SDS011;31595;51.418;7.572;2023-08-07T01:17:35;2.97;;;2.00;;
45887;SDS011;31595;51.418;7.572;2023-08-07T01:20:02;3.70;;;2.53;;
45887;SDS011;31595;51.418;7.572;2023-08-07T01:22:31;4.88;;;2.75;;
45887;SDS011;31595;51.418;7.572;2023-08-07T01:24:58;5.10;;;2.67;;
45887;SDS011;31595;51.418;7.572;2023-08-07T01:27:28;3.60;;;2.40;;
45887;SDS011;31595;51.418;7.572;2023-08-07T01:29:57;3.60;;;2.83;;
45887;SDS011;31595;51.418;7.572;2023-08-07T01:32:26;3.10;;;2.50;;
45887;SDS011;31595;51.418;7.572;2023-08-07T01:34:54;3.78;;;2.65;;
45887;SDS011;31595;51.418;7.572;2023-08-07T01:37:22;5.88;;;3.45;;
45887;SDS011;31595;51.418;7.572;2023-08-07T01:39:51;4.53;;;3.40;;
45887;SDS011;31595;51.418;7.572;2023-08-07T01:42:19;4.00;;;3.58;;
45887;SDS011;31595;51.418;7.572;2023-08-07T01:44:45;5.07;;;4.15;;
45887;SDS011;31595;51.418;7.572;2023-08-07T01:47:12;5.50;;;4.25;;
45887;SDS011;31595;51.418;7.572;2023-08-07T01:49:39;5.00;;;4.30;;
45887;SDS011;31595;51.418;7.572;2023-08-07T01:52:06;4.97;;;3.25;;
45887;SDS011;31595;51.418;7.572;2023-08-07T01:54:33;4.57;;;3.65;;
45887;SDS011;31595;51.418;7.572;2023-08-07T01:57:02;6.05;;;3.80;;
45887;SDS011;31595;51.418;7.572;2023-08-07T01:59:29;6.43;;;3.67;;
45887;SDS011;31595;51.418;7.572;2023-08-07T02:01:55;4.25;;;3.83;;
45887;SDS011;31595;51.418;7.572;2023-08-07T02:04:22;5.72;;;3.58;;
45887;SDS011;31595;51.418;7.572;2023-08-07T02:06:49;4.07;;;3.60;;
45887;SDS011;31595;51.418;7.572;2023-08-07T02:09:16;4.00;;;3.42;;
45887;SDS011;31595;51.418;7.572;2023-08-07T02:11:42;4.03;;;3.25;;
45887;SDS011;31595;51.418;7.572;2023-08-07T02:14:11;6.10;;;3.65;;
45887;SDS011;31595;51.418;7.572;2023-08-07T02:16:37;6.05;;;4.15;;
45887;SDS011;31595;51.418;7.572;2023-08-07T02:19:04;4.95;;;4.10;;
45887;SDS011;31595;51.418;7.572;2023-08-07T02:21:31;5.95;;;5.25;;
45887;SDS011;31595;51.418;7.572;2023-08-07T02:23:58;7.18;;;4.97;;
45887;SDS011;31595;51.418;7.572;2023-08-07T02:26:25;6.53;;;5.25;;
45887;SDS011;31595;51.418;7.572;2023-08-07T02:28:51;6.00;;;5.05;;
45887;SDS011;31595;51.418;7.572;2023-08-07T02:31:19;7.55;;;5.38;;
45887;SDS011;31595;51.418;7.572;2023-08-07T02:33:46;8.25;;;6.43;;
45887;SDS011;31595;51.418;7.572;2023-08-07T02:36:13;9.65;;;6.70;;
45887;SDS011;31595;51.418;7.572;2023-08-07T02:38:40;8.18;;;6.15;;
45887;SDS011;31595;51.418;7.572;2023-08-07T02:41:07;7.65;;;6.60;;
45887;SDS011;31595;51.418;7.572;2023-08-07T02:43:33;6.88;;;5.07;;
45887;SDS011;31595;51.418;7.572;2023-08-07T02:46:00;5.90;;;4.80;;
45887;SDS011;31595;51.418;7.572;2023-08-07T02:48:28;5.32;;;3.67;;
45887;SDS011;31595;51.418;7.572;2023-08-07T02:50:55;4.60;;;3.30;;
45887;SDS011;31595;51.418;7.572;2023-08-07T02:53:22;3.58;;;3.28;;
45887;SDS011;31595;51.418;7.572;2023-08-07T02:55:49;3.90;;;3.40;;
45887;SDS011;31595;51.418;7.572;2023-08-07T02:58:15;3.90;;;3.30;;
45887;SDS011;31595;51.418;7.572;2023-08-07T03:00:42;4.43;;;3.15;;
45887;SDS011;31595;51.418;7.572;2023-08-07T03:03:09;5.03;;;3.60;;
45887;SDS011;31595;51.418;7.572;2023-08-07T03:05:38;4.75;;;3.50;;
45887;SDS011;31595;51.418;7.572;2023-08-07T03:08:04;4.97;;;3.78;;
45887;SDS011;31595;51.418;7.572;2023-08-07T03:10:31;5.55;;;3.80;;
45887;SDS011;31595;51.418;7.572;2023-08-07T03:12:58;4.70;;;3.05;;
45887;SDS011;31595;51.418;7.572;2023-08-07T03:15:25;4.70;;;3.35;;
45887;SDS011;31595;51.418;7.572;2023-08-07T03:17:51;5.20;;;3.10;;
45887;SDS011;31595;51.418;7.572;2023-08-07T03:20:18;3.95;;;2.38;;
45887;SDS011;31595;51.418;7.572;2023-08-07T03:22:46;9.90;;;3.38;;
45887;SDS011;31595;51.418;7.572;2023-08-07T03:25:13;4.00;;;2.53;;
45887;SDS011;31595;51.418;7.572;2023-08-07T03:27:40;3.95;;;2.40;;
45887;SDS011;31595;51.418;7.572;2023-08-07T03:30:07;2.95;;;2.47;;
45887;SDS011;31595;51.418;7.572;2023-08-07T03:32:34;3.55;;;2.75;;
45887;SDS011;31595;51.418;7.572;2023-08-07T03:35:00;4.90;;;2.85;;
45887;SDS011;31595;51.418;7.572;2023-08-07T03:37:27;4.25;;;2.78;;
45887;SDS011;31595;51.418;7.572;2023-08-07T03:39:55;3.13;;;2.05;;
45887;SDS011;31595;51.418;7.572;2023-08-07T03:42:22;3.35;;;2.35;;
45887;SDS011;31595;51.418;7.572;2023-08-07T03:44:49;2.67;;;2.30;;
45887;SDS011;31595;51.418;7.572;2023-08-07T03:47:16;3.00;;;2.03;;
45887;SDS011;31595;51.418;7.572;2023-08-07T03:49:42;3.88;;;2.40;;
45887;SDS011;31595;51.418;7.572;2023-08-07T03:52:09;2.40;;;1.90;;
45887;SDS011;31595;51.418;7.572;2023-08-07T03:54:36;3.03;;;2.00;;
45887;SDS011;31595;51.418;7.572;2023-08-07T03:57:04;4.68;;;1.98;;
45887;SDS011;31595;51.418;7.572;2023-08-07T03:59:33;2.30;;;1.48;;
45887;SDS011;31595;51.418;7.572;2023-08-07T04:02:00;2.30;;;1.45;;
45887;SDS011;31595;51.418;7.572;2023-08-07T04:04:27;2.50;;;1.50;;
45887;SDS011;31595;51.418;7.572;2023-08-07T04:06:54;3.55;;;1.65;;
45887;SDS011;31595;51.418;7.572;2023-08-07T04:09:20;2.45;;;1.50;;
45887;SDS011;31595;51.418;7.572;2023-08-07T04:11:47;2.63;;;1.50;;
45887;SDS011;31595;51.418;7.572;2023-08-07T04:14:15;2.53;;;1.80;;
45887;SDS011;31595;51.418;7.572;2023-08-07T04:16:42;3.05;;;1.83;;
45887;SDS011;31595;51.418;7.572;2023-08-07T04:19:09;4.57;;;2.45;;
45887;SDS011;31595;51.418;7.572;2023-08-07T04:21:36;4.28;;;2.78;;
45887;SDS011;31595;51.418;7.572;2023-08-07T04:24:03;4.70;;;2.90;;
45887;SDS011;31595;51.418;7.572;2023-08-07T04:26:35;6.97;;;3.90;;
45887;SDS011;31595;51.418;7.572;2023-08-07T04:29:02;6.03;;;4.18;;
45887;SDS011;31595;51.418;7.572;2023-08-07T04:31:30;5.88;;;4.50;;
45887;SDS011;31595;51.418;7.572;2023-08-07T04:33:58;9.73;;;4.90;;
45887;SDS011;31595;51.418;7.572;2023-08-07T04:36:25;9.60;;;6.35;;
45887;SDS011;31595;51.418;7.572;2023-08-07T04:38:51;11.02;;;6.97;;
45887;SDS011;31595;51.418;7.572;2023-08-07T04:41:20;9.75;;;7.22;;
45887;SDS011;31595;51.418;7.572;2023-08-07T04:43:47;10.85;;;7.72;;
45887;SDS011;31595;51.418;7.572;2023-08-07T04:46:14;9.25;;;7.40;;
45887;SDS011;31595;51.418;7.572;2023-08-07T04:48:42;10.93;;;8.20;;
45887;SDS011;31595;51.418;7.572;2023-08-07T04:51:09;11.88;;;8.38;;
45887;SDS011;31595;51.418;7.572;2023-08-07T04:53:36;9.93;;;8.90;;
45887;SDS011;31595;51.418;7.572;2023-08-07T04:56:03;14.15;;;9.48;;
45887;SDS011;31595;51.418;7.572;2023-08-07T04:58:30;15.75;;;10.25;;
45887;SDS011;31595;51.418;7.572;2023-08-07T05:00:56;12.90;;;10.20;;
45887;SDS011;31595;51.418;7.572;2023-08-07T05:03:23;15.50;;;10.23;;
45887;SDS011;31595;51.418;7.572;2023-08-07T05:05:51;14.40;;;11.13;;
45887;SDS011;31595;51.418;7.572;2023-08-07T05:08:24;14.43;;;11.23;;
45887;SDS011;31595;51.418;7.572;2023-08-07T05:10:51;16.73;;;11.52;;
45887;SDS011;31595;51.418;7.572;2023-08-07T05:13:18;11.23;;;9.73;;
45887;SDS011;31595;51.418;7.572;2023-08-07T05:15:46;13.18;;;10.38;;
45887;SDS011;31595;51.418;7.572;2023-08-07T05:18:13;12.70;;;9.68;;
45887;SDS011;31595;51.418;7.572;2023-08-07T05:20:40;15.93;;;10.23;;
45887;SDS011;31595;51.418;7.572;2023-08-07T05:23:08;14.27;;;9.02;;
45887;SDS011;31595;51.418;7.572;2023-08-07T05:25:36;13.48;;;10.10;;
45887;SDS011;31595;51.418;7.572;2023-08-07T05:28:03;13.82;;;9.93;;
45887;SDS011;31595;51.418;7.572;2023-08-07T05:30:30;12.50;;;9.52;;
45887;SDS011;31595;51.418;7.572;2023-08-07T05:32:57;17.17;;;11.70;;
45887;SDS011;31595;51.418;7.572;2023-08-07T05:35:24;13.07;;;11.43;;
45887;SDS011;31595;51.418;7.572;2023-08-07T05:37:51;13.38;;;10.90;;
45887;SDS011;31595;51.418;7.572;2023-08-07T05:40:19;18.85;;;13.07;;
45887;SDS011;31595;51.418;7.572;2023-08-07T05:42:46;14.55;;;11.88;;
45887;SDS011;31595;51.418;7.572;2023-08-07T05:45:13;13.60;;;10.60;;
45887;SDS011;31595;51.418;7.572;2023-08-07T05:47:39;11.77;;;8.63;;
45887;SDS011;31595;51.418;7.572;2023-08-07T05:50:06;11.32;;;7.97;;
45887;SDS011;31595;51.418;7.572;2023-08-07T05:52:33;11.82;;;7.20;;
45887;SDS011;31595;51.418;7.572;2023-08-07T05:55:00;8.27;;;6.03;;
45887;SDS011;31595;51.418;7.572;2023-08-07T05:57:28;8.35;;;5.03;;
45887;SDS011;31595;51.418;7.572;2023-08-07T05:59:55;7.15;;;4.65;;
45887;SDS011;31595;51.418;7.572;2023-08-07T06:02:22;9.55;;;4.68;;
45887;SDS011;31595;51.418;7.572;2023-08-07T06:04:48;6.35;;;3.95;;
45887;SDS011;31595;51.418;7.572;2023-08-07T06:07:15;7.72;;;2.88;;
45887;SDS011;31595;51.418;7.572;2023-08-07T06:09:42;6.18;;;2.75;;
45887;SDS011;31595;51.418;7.572;2023-08-07T06:12:09;4.70;;;3.08;;
45887;SDS011;31595;51.418;7.572;2023-08-07T06:14:38;4.60;;;2.85;;
45887;SDS011;31595;51.418;7.572;2023-08-07T06:17:04;4.88;;;3.17;;
45887;SDS011;31595;51.418;7.572;2023-08-07T06:19:31;4.28;;;2.63;;
45887;SDS011;31595;51.418;7.572;2023-08-07T06:21:58;5.72;;;2.70;;
45887;SDS011;31595;51.418;7.572;2023-08-07T06:24:25;4.78;;;2.95;;
45887;SDS011;31595;51.418;7.572;2023-08-07T06:26:52;6.50;;;3.58;;
45887;SDS011;31595;51.418;7.572;2023-08-07T06:29:18;4.68;;;3.22;;
45887;SDS011;31595;51.418;7.572;2023-08-07T06:31:46;5.60;;;3.13;;
45887;SDS011;31595;51.418;7.572;2023-08-07T06:34:13;4.47;;;3.08;;
45887;SDS011;31595;51.418;7.572;2023-08-07T06:36:40;4.55;;;2.75;;
45887;SDS011;31595;51.418;7.572;2023-08-07T06:39:07;4.40;;;2.58;;
45887;SDS011;31595;51.418;7.572;2023-08-07T06:41:34;4.13;;;3.03;;
45887;SDS011;31595;51.418;7.572;2023-08-07T06:44:00;3.10;;;2.60;;
45887;SDS011;31595;51.418;7.572;2023-08-07T06:46:27;4.38;;;3.35;;
45887;SDS011;31595;51.418;7.572;2023-08-07T06:48:56;4.38;;;2.83;;
45887;SDS011;31595;51.418;7.572;2023-08-07T06:51:22;3.75;;;2.90;;
45887;SDS011;31595;51.418;7.572;2023-08-07T06:53:49;4.53;;;3.28;;
45887;SDS011;31595;51.418;7.572;2023-08-07T06:56:16;4.03;;;3.10;;
45887;SDS011;31595;51.418;7.572;2023-08-07T06:58:43;6.57;;;4.32;;
45887;SDS011;31595;51.418;7.572;2023-08-07T07:01:10;7.40;;;4.35;;
45887;SDS011;31595;51.418;7.572;2023-08-07T07:03:38;5.65;;;4.70;;
45887;SDS011;31595;51.418;7.572;2023-08-07T07:06:13;6.63;;;5.32;;
45887;SDS011;31595;51.418;7.572;2023-08-07T07:08:40;6.70;;;5.38;;
45887;SDS011;31595;51.418;7.572;2023-08-07T07:11:07;7.13;;;5.63;;
45887;SDS011;31595;51.418;7.572;2023-08-07T07:13:34;6.70;;;5.93;;
45887;SDS011;31595;51.418;7.572;2023-08-07T07:16:00;6.82;;;5.80;;
45887;SDS011;31595;51.418;7.572;2023-08-07T07:18:27;6.07;;;5.40;;
45887;SDS011;31595;51.418;7.572;2023-08-07T07:20:57;9.45;;;6.18;;
45887;SDS011;31595;51.418;7.572;2023-08-07T07:23:27;6.88;;;6.20;;
45887;SDS011;31595;51.418;7.572;2023-08-07T07:25:53;8.48;;;6.85;;
45887;SDS011;31595;51.418;7.572;2023-08-07T07:28:20;7.50;;;6.60;;
45887;SDS011;31595;51.418;7.572;2023-08-07T07:30:48;9.05;;;6.32;;
45887;SDS011;31595;51.418;7.572;2023-08-07T07:33:15;6.40;;;5.80;;
45887;SDS011;31595;51.418;7.572;2023-08-07T07:35:42;6.75;;;5.30;;
45887;SDS011;31595;51.418;7.572;2023-08-07T07:38:09;6.57;;;5.07;;
45887;SDS011;31595;51.418;7.572;2023-08-07T07:40:38;7.05;;;5.05;;
45887;SDS011;31595;51.418;7.572;2023-08-07T07:43:04;6.07;;;5.47;;
45887;SDS011;31595;51.418;7.572;2023-08-07T07:45:31;10.45;;;6.07;;
45887;SDS011;31595;51.418;7.572;2023-08-07T07:47:59;7.47;;;5.93;;
45887;SDS011;31595;51.418;7.572;2023-08-07T07:50:26;6.20;;;5.45;;
45887;SDS011;31595;51.418;7.572;2023-08-07T07:52:52;5.78;;;5.13;;
45887;SDS011;31595;51.418;7.572;2023-08-07T07:55:19;6.15;;;5.18;;
45887;SDS011;31595;51.418;7.572;2023-08-07T07:57:47;5.82;;;5.00;;
45887;SDS011;31595;51.418;7.572;2023-08-07T08:00:14;6.50;;;4.50;;
45887;SDS011;31595;51.418;7.572;2023-08-07T08:02:41;6.00;;;4.65;;
45887;SDS011;31595;51.418;7.572;2023-08-07T08:05:09;6.07;;;4.82;;
45887;SDS011;31595;51.418;7.572;2023-08-07T08:07:36;4.53;;;4.13;;
45887;SDS011;31595;51.418;7.572;2023-08-07T08:10:05;6.03;;;4.10;;
45887;SDS011;31595;51.418;7.572;2023-08-07T08:12:32;4.07;;;3.65;;
45887;SDS011;31595;51.418;7.572;2023-08-07T08:15:00;4.72;;;3.70;;
45887;SDS011;31595;51.418;7.572;2023-08-07T08:17:27;4.15;;;3.70;;
45887;SDS011;31595;51.418;7.572;2023-08-07T08:19:53;4.00;;;3.55;;
45887;SDS011;31595;51.418;7.572;2023-08-07T08:22:20;4.72;;;3.88;;
45887;SDS011;31595;51.418;7.572;2023-08-07T08:24:47;4.22;;;3.60;;
45887;SDS011;31595;51.418;7.572;2023-08-07T08:27:14;4.57;;;3.65;;
45887;SDS011;31595;51.418;7.572;2023-08-07T08:29:42;3.47;;;3.17;;
45887;SDS011;31595;51.418;7.572;2023-08-07T08:32:11;4.10;;;3.22;;
45887;SDS011;31595;51.418;7.572;2023-08-07T08:34:38;4.75;;;3.00;;
45887;SDS011;31595;51.418;7.572;2023-08-07T08:37:05;3.33;;;3.03;;
45887;SDS011;31595;51.418;7.572;2023-08-07T08:39:32;4.22;;;2.80;;
45887;SDS011;31595;51.418;7.572;2023-08-07T08:41:59;4.25;;;3.30;;
45887;SDS011;31595;51.418;7.572;2023-08-07T08:44:26;3.83;;;3.17;;
45887;SDS011;31595;51.418;7.572;2023-08-07T08:46:55;4.03;;;2.95;;
45887;SDS011;31595;51.418;7.572;2023-08-07T08:49:27;4.57;;;2.63;;
45887;SDS011;31595;51.418;7.572;2023-08-07T08:51:54;3.72;;;2.17;;
45887;SDS011;31595;51.418;7.572;2023-08-07T08:54:21;2.85;;;2.00;;
45887;SDS011;31595;51.418;7.572;2023-08-07T08:56:48;4.18;;;2.00;;
45887;SDS011;31595;51.418;7.572;2023-08-07T08:59:16;4.40;;;2.28;;
45887;SDS011;31595;51.418;7.572;2023-08-07T09:01:43;2.95;;;1.63;;
45887;SDS011;31595;51.418;7.572;2023-08-07T09:04:10;4.90;;;2.10;;
45887;SDS011;31595;51.418;7.572;2023-08-07T09:06:38;2.33;;;1.50;;
45887;SDS011;31595;51.418;7.572;2023-08-07T09:11:33;2.85;;;1.35;;
45887;SDS011;31595;51.418;7.572;2023-08-07T09:14:01;2.65;;;1.10;;
45887;SDS011;31595;51.418;7.572;2023-08-07T09:16:28;2.92;;;1.30;;
45887;SDS011;31595;51.418;7.572;2023-08-07T09:18:56;3.88;;;1.50;;
45887;SDS011;31595;51.418;7.572;2023-08-07T09:21:23;3.90;;;1.40;;
45887;SDS011;31595;51.418;7.572;2023-08-07T09:23:51;5.50;;;1.73;;
45887;SDS011;31595;51.418;7.572;2023-08-07T09:26:21;3.38;;;1.50;;
45887;SDS011;31595;51.418;7.572;2023-08-07T09:28:48;4.50;;;1.95;;
45887;SDS011;31595;51.418;7.572;2023-08-07T09:31:15;3.85;;;1.90;;
45887;SDS011;31595;51.418;7.572;2023-08-07T09:33:41;5.38;;;2.50;;
45887;SDS011;31595;51.418;7.572;2023-08-07T09:36:10;4.10;;;2.20;;
45887;SDS011;31595;51.418;7.572;2023-08-07T09:38:38;5.30;;;2.55;;
45887;SDS011;31595;51.418;7.572;2023-08-07T09:41:06;6.60;;;2.60;;
45887;SDS011;31595;51.418;7.572;2023-08-07T09:43:33;7.72;;;3.05;;
45887;SDS011;31595;51.418;7.572;2023-08-07T09:46:03;7.20;;;2.60;;
45887;SDS011;31595;51.418;7.572;2023-08-07T09:48:30;7.43;;;2.60;;
45887;SDS011;31595;51.418;7.572;2023-08-07T09:51:00;7.43;;;2.65;;
45887;SDS011;31595;51.418;7.572;2023-08-07T09:53:27;7.53;;;2.90;;
45887;SDS011;31595;51.418;7.572;2023-08-07T09:56:01;7.85;;;2.95;;
45887;SDS011;31595;51.418;7.572;2023-08-07T09:58:30;6.63;;;2.90;;
45887;SDS011;31595;51.418;7.572;2023-08-07T10:00:58;6.40;;;3.28;;
45887;SDS011;31595;51.418;7.572;2023-08-07T10:03:25;8.88;;;3.30;;
45887;SDS011;31595;51.418;7.572;2023-08-07T10:05:52;8.48;;;2.95;;
45887;SDS011;31595;51.418;7.572;2023-08-07T10:08:19;8.25;;;3.45;;
45887;SDS011;31595;51.418;7.572;2023-08-07T10:10:47;7.72;;;3.55;;
45887;SDS011;31595;51.418;7.572;2023-08-07T10:13:14;5.38;;;3.13;;
45887;SDS011;31595;51.418;7.572;2023-08-07T10:15:42;7.72;;;3.08;;
45887;SDS011;31595;51.418;7.572;2023-08-07T10:18:09;8.15;;;2.97;;
45887;SDS011;31595;51.418;7.572;2023-08-07T10:20:36;8.02;;;3.22;;
45887;SDS011;31595;51.418;7.572;2023-08-07T10:23:04;5.90;;;2.85;;
45887;SDS011;31595;51.418;7.572;2023-08-07T10:25:33;7.75;;;3.53;;
45887;SDS011;31595;51.418;7.572;2023-08-07T10:28:00;5.95;;;2.88;;
45887;SDS011;31595;51.418;7.572;2023-08-07T10:30:28;6.05;;;2.92;;
45887;SDS011;31595;51.418;7.572;2023-08-07T10:32:57;6.78;;;3.35;;
45887;SDS011;31595;51.418;7.572;2023-08-07T10:35:25;7.80;;;3.65;;
45887;SDS011;31595;51.418;7.572;2023-08-07T10:37:52;8.55;;;3.65;;
45887;SDS011;31595;51.418;7.572;2023-08-07T10:40:19;8.35;;;4.07;;
45887;SDS011;31595;51.418;7.572;2023-08-07T10:42:57;5.28;;;2.90;;
45887;SDS011;31595;51.418;7.572;2023-08-07T10:45:24;4.90;;;2.47;;
45887;SDS011;31595;51.418;7.572;2023-08-07T10:48:02;7.60;;;2.90;;
45887;SDS011;31595;51.418;7.572;2023-08-07T10:50:29;9.75;;;3.35;;
45887;SDS011;31595;51.418;7.572;2023-08-07T10:52:59;4.30;;;2.25;;
45887;SDS011;31595;51.418;7.572;2023-08-07T10:55:26;6.05;;;2.50;;
45887;SDS011;31595;51.418;7.572;2023-08-07T10:57:53;4.40;;;2.15;;
45887;SDS011;31595;51.418;7.572;2023-08-07T11:00:21;4.93;;;2.50;;
45887;SDS011;31595;51.418;7.572;2023-08-07T11:02:51;5.90;;;2.75;;
45887;SDS011;31595;51.418;7.572;2023-08-07T11:05:20;5.05;;;2.70;;
45887;SDS011;31595;51.418;7.572;2023-08-07T11:07:47;4.70;;;2.10;;
45887;SDS011;31595;51.418;7.572;2023-08-07T11:10:13;4.35;;;2.20;;
45887;SDS011;31595;51.418;7.572;2023-08-07T11:12:41;5.88;;;2.17;;
45887;SDS011;31595;51.418;7.572;2023-08-07T11:15:11;5.10;;;2.20;;
45887;SDS011;31595;51.418;7.572;2023-08-07T11:17:39;5.97;;;2.55;;
45887;SDS011;31595;51.418;7.572;2023-08-07T11:20:07;5.72;;;2.67;;
45887;SDS011;31595;51.418;7.572;2023-08-07T11:22:39;5.22;;;2.55;;
45887;SDS011;31595;51.418;7.572;2023-08-07T11:25:07;6.85;;;2.53;;
45887;SDS011;31595;51.418;7.572;2023-08-07T11:27:39;7.25;;;2.83;;
45887;SDS011;31595;51.418;7.572;2023-08-07T11:30:14;4.90;;;2.17;;
45887;SDS011;31595;51.418;7.572;2023-08-07T11:32:44;7.13;;;2.88;;
45887;SDS011;31595;51.418;7.572;2023-08-07T11:35:11;6.45;;;2.78;;
45887;SDS011;31595;51.418;7.572;2023-08-07T11:37:46;4.95;;;2.75;;
45887;SDS011;31595;51.418;7.572;2023-08-07T11:40:13;6.25;;;2.58;;
45887;SDS011;31595;51.418;7.572;2023-08-07T11:42:40;4.82;;;2.40;;
45887;SDS011;31595;51.418;7.572;2023-08-07T11:45:08;7.35;;;2.67;;
45887;SDS011;31595;51.418;7.572;2023-08-07T11:47:37;6.15;;;2.45;;
45887;SDS011;31595;51.418;7.572;2023-08-07T11:50:06;7.55;;;2.25;;
45887;SDS011;31595;51.418;7.572;2023-08-07T11:52:33;5.38;;;2.63;;
45887;SDS011;31595;51.418;7.572;2023-08-07T11:55:02;7.13;;;2.00;;
45887;SDS011;31595;51.418;7.572;2023-08-07T11:57:29;3.63;;;1.90;;
45887;SDS011;31595;51.418;7.572;2023-08-07T11:59:58;4.78;;;2.15;;
45887;SDS011;31595;51.418;7.572;2023-08-07T12:02:25;4.90;;;2.20;;
45887;SDS011;31595;51.418;7.572;2023-08-07T12:04:56;5.97;;;2.70;;
45887;SDS011;31595;51.418;7.572;2023-08-07T12:07:27;6.43;;;2.50;;
45887;SDS011;31595;51.418;7.572;2023-08-07T12:09:53;5.70;;;2.45;;
45887;SDS011;31595;51.418;7.572;2023-08-07T12:12:25;7.25;;;2.67;;
45887;SDS011;31595;51.418;7.572;2023-08-07T12:14:52;5.97;;;2.38;;
45887;SDS011;31595;51.418;7.572;2023-08-07T12:17:20;7.50;;;2.53;;
45887;SDS011;31595;51.418;7.572;2023-08-07T12:19:47;7.80;;;2.80;;
45887;SDS011;31595;51.418;7.572;2023-08-07T12:22:18;5.43;;;2.17;;
45887;SDS011;31595;51.418;7.572;2023-08-07T12:24:45;5.40;;;2.10;;
45887;SDS011;31595;51.418;7.572;2023-08-07T12:27:12;6.10;;;2.15;;
45887;SDS011;31595;51.418;7.572;2023-08-07T12:29:41;6.90;;;1.95;;
45887;SDS011;31595;51.418;7.572;2023-08-07T12:32:07;6.00;;;2.35;;
45887;SDS011;31595;51.418;7.572;2023-08-07T12:34:35;4.57;;;2.60;;
45887;SDS011;31595;51.418;7.572;2023-08-07T12:37:03;4.67;;;2.80;;
45887;SDS011;31595;51.418;7.572;2023-08-07T12:39:31;7.32;;;2.70;;
45887;SDS011;31595;51.418;7.572;2023-08-07T12:41:58;5.25;;;2.10;;
45887;SDS011;31595;51.418;7.572;2023-08-07T12:44:25;6.43;;;2.50;;
45887;SDS011;31595;51.418;7.572;2023-08-07T12:46:53;5.80;;;1.90;;
45887;SDS011;31595;51.418;7.572;2023-08-07T12:49:20;4.72;;;2.20;;
45887;SDS011;31595;51.418;7.572;2023-08-07T12:51:47;4.43;;;2.00;;
45887;SDS011;31595;51.418;7.572;2023-08-07T12:54:13;7.70;;;2.50;;
45887;SDS011;31595;51.418;7.572;2023-08-07T12:56:40;5.55;;;2.72;;
45887;SDS011;31595;51.418;7.572;2023-08-07T12:59:07;6.95;;;2.42;;
45887;SDS011;31595;51.418;7.572;2023-08-07T13:01:34;5.32;;;2.13;;
45887;SDS011;31595;51.418;7.572;2023-08-07T13:04:02;4.15;;;2.10;;
45887;SDS011;31595;51.418;7.572;2023-08-07T13:06:31;4.70;;;2.08;;
45887;SDS011;31595;51.418;7.572;2023-08-07T13:08:58;12.98;;;2.28;;
45887;SDS011;31595;51.418;7.572;2023-08-07T13:11:25;5.10;;;1.90;;
45887;SDS011;31595;51.418;7.572;2023-08-07T13:13:52;3.83;;;1.52;;
45887;SDS011;31595;51.418;7.572;2023-08-07T13:16:19;3.30;;;1.80;;
45887;SDS011;31595;51.418;7.572;2023-08-07T13:18:46;4.28;;;1.98;;
45887;SDS011;31595;51.418;7.572;2023-08-07T13:21:14;5.25;;;2.30;;
45887;SDS011;31595;51.418;7.572;2023-08-07T13:23:41;6.27;;;2.20;;
45887;SDS011;31595;51.418;7.572;2023-08-07T13:26:08;6.50;;;1.88;;
45887;SDS011;31595;51.418;7.572;2023-08-07T13:28:34;3.80;;;2.03;;
45887;SDS011;31595;51.418;7.572;2023-08-07T13:31:01;5.25;;;2.13;;
45887;SDS011;31595;51.418;7.572;2023-08-07T13:33:28;5.22;;;1.73;;
45887;SDS011;31595;51.418;7.572;2023-08-07T13:35:55;4.00;;;1.75;;
45887;SDS011;31595;51.418;7.572;2023-08-07T13:38:23;5.50;;;2.20;;
45887;SDS011;31595;51.418;7.572;2023-08-07T13:40:50;3.03;;;1.55;;
45887;SDS011;31595;51.418;7.572;2023-08-07T13:43:17;2.30;;;1.42;;
45887;SDS011;31595;51.418;7.572;2023-08-07T13:45:44;4.45;;;1.85;;
45887;SDS011;31595;51.418;7.572;2023-08-07T13:48:11;4.43;;;1.70;;
45887;SDS011;31595;51.418;7.572;2023-08-07T13:50:38;3.70;;;1.65;;
45887;SDS011;31595;51.418;7.572;2023-08-07T13:53:06;4.65;;;1.58;;
45887;SDS011;31595;51.418;7.572;2023-08-07T13:55:34;3.88;;;1.85;;
45887;SDS011;31595;51.418;7.572;2023-08-07T13:58:01;3.87;;;1.80;;
45887;SDS011;31595;51.418;7.572;2023-08-07T14:00:29;5.07;;;1.70;;
45887;SDS011;31595;51.418;7.572;2023-08-07T14:02:56;4.72;;;1.80;;
45887;SDS011;31595;51.418;7.572;2023-08-07T14:05:22;4.70;;;1.80;;
45887;SDS011;31595;51.418;7.572;2023-08-07T14:07:49;4.38;;;1.60;;
45887;SDS011;31595;51.418;7.572;2023-08-07T14:10:16;5.35;;;1.95;;
45887;SDS011;31595;51.418;7.572;2023-08-07T14:12:44;5.63;;;1.98;;
45887;SDS011;31595;51.418;7.572;2023-08-07T14:17:38;4.93;;;1.98;;
45887;SDS011;31595;51.418;7.572;2023-08-07T14:20:06;4.60;;;2.00;;
45887;SDS011;31595;51.418;7.572;2023-08-07T14:22:33;4.15;;;1.67;;
45887;SDS011;31595;51.418;7.572;2023-08-07T14:25:02;4.00;;;1.90;;
45887;SDS011;31595;51.418;7.572;2023-08-07T14:27:29;5.53;;;1.90;;
45887;SDS011;31595;51.418;7.572;2023-08-07T14:29:57;4.05;;;1.88;;
45887;SDS011;31595;51.418;7.572;2023-08-07T14:32:23;5.28;;;1.95;;
45887;SDS011;31595;51.418;7.572;2023-08-07T14:34:52;3.25;;;1.77;;
45887;SDS011;31595;51.418;7.572;2023-08-07T14:37:18;7.13;;;2.28;;
45887;SDS011;31595;51.418;7.572;2023-08-07T14:39:45;6.50;;;2.42;;
45887;SDS011;31595;51.418;7.572;2023-08-07T14:42:12;5.28;;;2.03;;
45887;SDS011;31595;51.418;7.572;2023-08-07T14:44:39;5.57;;;2.03;;
45887;SDS011;31595;51.418;7.572;2023-08-07T14:47:07;4.70;;;2.08;;
45887;SDS011;31595;51.418;7.572;2023-08-07T14:49:34;4.50;;;2.20;;
45887;SDS011;31595;51.418;7.572;2023-08-07T14:52:00;5.93;;;1.95;;